Time;durP1;ratioP1;P1;durP2;ratioP2;P2;SDS_P1;SDS_P2;PMS_P1;PMS_P2;Temp;Humidity;BMP_temperature;BMP_pressure;BME280_temperature;BME280_humidity;BME280_pressure;Samples;Min_cycle;Max_cycle;Signal;HPM_P1;HPM_P2
2022/04/23 00:04:37;;;;;;;9.80;5.80;;;12.00;78.70;;;;;;10244620;28;20042;-87
2022/04/23 00:09:38;;;;;;;9.35;6.03;;;11.90;79.30;;;;;;10233156;28;20089;-86
2022/04/23 00:14:39;;;;;;;14.88;7.07;;;12.10;79.90;;;;;;10237346;28;20129;-87
2022/04/23 00:19:40;;;;;;;14.95;7.13;;;11.80;80.40;;;;;;10247916;28;20044;-86
2022/04/23 00:24:43;;;;;;;12.20;7.45;;;11.80;81.10;;;;;;10267034;28;20421;-86
2022/04/23 00:29:49;;;;;;;15.65;7.78;;;11.80;81.70;;;;;;10247575;28;20517;-86
2022/04/23 00:34:50;;;;;;;14.70;8.38;;;11.70;82.50;;;;;;10256601;28;20051;-86
2022/04/23 00:39:51;;;;;;;13.85;8.57;;;11.70;83.10;;;;;;10256951;28;20560;-87
2022/04/23 00:44:51;;;;;;;15.60;8.75;;;11.70;83.70;;;;;;10266328;28;20027;-87
2022/04/23 00:49:52;;;;;;;14.93;8.95;;;11.60;84.00;;;;;;10254785;28;20047;-86
2022/04/23 00:54:53;;;;;;;14.93;8.35;;;11.60;84.60;;;;;;10283459;28;20042;-86
2022/04/23 00:59:55;;;;;;;15.77;9.32;;;11.60;85.00;;;;;;10265476;28;20547;-86
2022/04/23 01:04:56;;;;;;;15.90;9.35;;;11.70;85.40;;;;;;10281199;28;20050;-87
2022/04/23 01:09:57;;;;;;;16.85;8.95;;;11.50;86.00;;;;;;10235948;28;20074;-87
2022/04/23 01:14:58;;;;;;;15.75;9.45;;;11.40;86.50;;;;;;10245760;28;20529;-86
2022/04/23 01:20:07;;;;;;;17.10;9.45;;;11.40;86.90;;;;;;10243972;28;20041;-87
2022/04/23 01:25:12;;;;;;;15.27;9.35;;;11.30;87.90;;;;;;10280466;28;20102;-86
2022/04/23 01:30:13;;;;;;;19.38;10.20;;;11.30;87.80;;;;;;10273678;28;20825;-86
2022/04/23 01:35:16;;;;;;;15.52;9.48;;;11.30;88.00;;;;;;10261203;28;20041;-88
2022/04/23 01:40:17;;;;;;;15.43;9.13;;;11.30;88.30;;;;;;10257538;28;20049;-88
2022/04/23 01:45:17;;;;;;;18.38;10.32;;;11.90;88.90;;;;;;10264473;28;20546;-87
2022/04/23 01:50:21;;;;;;;16.40;10.10;;;11.20;88.90;;;;;;10264727;28;20054;-87
2022/04/23 01:55:21;;;;;;;18.10;9.85;;;11.20;89.10;;;;;;10277743;28;20065;-87
2022/04/23 02:00:22;;;;;;;20.60;10.55;;;11.60;89.60;;;;;;10244390;28;20050;-86
2022/04/23 02:05:24;;;;;;;15.60;9.68;;;11.10;89.70;;;;;;10248076;28;20050;-86
2022/04/23 02:10:24;;;;;;;17.42;10.05;;;11.10;89.80;;;;;;10282225;28;20039;-87
2022/04/23 02:15:25;;;;;;;18.05;9.85;;;11.10;90.10;;;;;;10247999;28;20046;-88
2022/04/23 02:20:28;;;;;;;15.30;9.07;;;11.00;90.10;;;;;;10261587;28;20035;-86
2022/04/23 02:25:45;;;;;;;14.63;9.52;;;11.10;90.30;;;;;;10262627;28;20047;-88
2022/04/23 02:30:46;;;;;;;20.05;10.07;;;11.00;90.30;;;;;;10248288;28;20046;-87
2022/04/23 02:35:47;;;;;;;19.50;9.80;;;11.30;90.50;;;;;;10267461;28;20505;-86
2022/04/23 02:40:47;;;;;;;13.98;9.10;;;10.90;90.50;;;;;;10244433;28;20418;-87
2022/04/23 02:45:48;;;;;;;16.05;9.45;;;11.10;90.70;;;;;;10263022;28;20129;-86
2022/04/23 02:50:49;;;;;;;15.57;9.02;;;10.80;90.80;;;;;;10242971;28;20043;-87
2022/04/23 02:55:51;;;;;;;16.17;9.23;;;10.80;90.90;;;;;;10243836;28;20037;-87
2022/04/23 03:00:53;;;;;;;14.95;9.00;;;10.70;90.90;;;;;;10257813;28;20043;-87
2022/04/23 03:05:54;;;;;;;15.30;9.35;;;11.00;91.10;;;;;;10262159;28;20122;-87
2022/04/23 03:10:57;;;;;;;15.73;9.77;;;11.00;91.20;;;;;;10244181;28;20046;-87
2022/04/23 03:15:58;;;;;;;13.63;8.88;;;10.60;91.30;;;;;;10261793;28;20054;-87
2022/04/23 03:21:02;;;;;;;15.45;9.40;;;10.50;91.40;;;;;;10285263;28;20415;-86
2022/04/23 03:26:02;;;;;;;14.35;8.95;;;10.60;91.50;;;;;;10251975;28;20122;-87
2022/04/23 03:31:06;;;;;;;16.08;9.15;;;10.40;91.50;;;;;;10274484;28;20046;-87
2022/04/23 03:36:07;;;;;;;14.70;9.18;;;10.40;91.50;;;;;;10259096;28;20043;-88
2022/04/23 03:41:07;;;;;;;14.70;8.02;;;10.30;91.60;;;;;;10248927;28;20046;-87
2022/04/23 03:46:08;;;;;;;14.13;8.00;;;10.90;91.80;;;;;;10257429;28;20047;-87
2022/04/23 03:51:09;;;;;;;12.63;8.00;;;10.80;91.90;;;;;;10250335;28;20525;-88
2022/04/23 03:56:10;;;;;;;15.25;8.07;;;10.20;91.80;;;;;;10249797;28;20038;-87
2022/04/23 04:01:11;;;;;;;14.05;7.50;;;10.20;91.90;;;;;;10230577;28;20047;-87
2022/04/23 04:06:11;;;;;;;13.43;7.57;;;11.20;92.30;;;;;;10240388;28;20035;-86
2022/04/23 04:11:12;;;;;;;16.55;8.30;;;10.10;92.10;;;;;;10253925;28;20039;-86
2022/04/23 04:16:13;;;;;;;12.65;7.53;;;10.10;92.20;;;;;;10268471;28;20093;-87
2022/04/23 04:21:15;;;;;;;11.65;7.30;;;10.00;92.20;;;;;;10270016;28;20465;-87
2022/04/23 04:26:16;;;;;;;16.02;8.30;;;10.00;92.30;;;;;;10260191;28;20631;-86
2022/04/23 04:36:35;;;;;;;;;;;9.90;92.30;;;;;;10271441;28;20046;-86
2022/04/23 04:41:37;;;;;;;13.35;7.38;;;9.90;93.40;;;;;;10268024;28;20343;-86
2022/04/23 04:46:38;;;;;;;11.75;7.03;;;9.80;92.20;;;;;;10267979;28;20040;-85
2022/04/23 04:51:39;;;;;;;14.63;7.65;;;10.00;92.20;;;;;;10275566;28;20397;-87
2022/04/23 04:56:39;;;;;;;13.25;7.22;;;10.00;92.40;;;;;;10249153;28;20065;-87
2022/04/23 05:01:41;;;;;;;12.02;7.53;;;10.40;92.50;;;;;;10243568;28;20560;-87
2022/04/23 05:06:41;;;;;;;15.25;7.38;;;10.30;92.60;;;;;;10284449;28;20043;-86
2022/04/23 05:11:42;;;;;;;12.70;7.18;;;10.80;92.70;;;;;;10271005;28;20097;-87
2022/04/23 05:16:43;;;;;;;10.10;6.97;;;9.90;92.50;;;;;;10262077;28;20111;-87
2022/04/23 05:21:45;;;;;;;12.23;7.63;;;10.40;92.60;;;;;;10258761;28;20028;-86
2022/04/23 05:26:46;;;;;;;12.07;6.75;;;9.90;92.50;;;;;;10260632;28;20106;-87
2022/04/23 05:31:46;;;;;;;10.32;6.88;;;9.90;92.60;;;;;;10240217;28;20055;-87
2022/04/23 05:36:47;;;;;;;10.45;6.80;;;9.90;92.50;;;;;;10265830;28;20047;-86
2022/04/23 05:41:48;;;;;;;11.45;6.80;;;10.00;92.50;;;;;;10273550;28;20038;-87
2022/04/23 05:46:49;;;;;;;10.57;6.70;;;10.00;92.40;;;;;;10260389;28;20054;-86
2022/04/23 05:51:50;;;;;;;11.65;6.78;;;10.00;92.40;;;;;;10264797;28;20042;-86
2022/04/23 05:56:50;;;;;;;11.02;6.63;;;10.60;92.50;;;;;;10260786;28;20573;-87
2022/04/23 06:01:51;;;;;;;11.38;6.25;;;10.10;92.20;;;;;;10255790;28;20108;-86
2022/04/23 06:06:52;;;;;;;9.20;5.80;;;11.10;92.40;;;;;;10247804;28;20050;-87
2022/04/23 06:11:53;;;;;;;9.93;6.30;;;10.30;92.20;;;;;;10282301;28;20038;-86
2022/04/23 06:16:53;;;;;;;10.57;6.28;;;10.70;92.10;;;;;;10248580;28;20043;-86
2022/04/23 06:21:59;;;;;;;11.00;6.72;;;10.80;91.80;;;;;;10265095;28;20041;-87
2022/04/23 06:27:01;;;;;;;10.85;6.22;;;10.60;91.70;;;;;;10280818;28;20070;-86
2022/04/23 06:32:02;;;;;;;10.40;6.32;;;10.80;91.50;;;;;;10238420;28;20031;-86
2022/04/23 06:37:04;;;;;;;9.30;5.90;;;11.00;91.20;;;;;;10246651;28;20516;-86
2022/04/23 06:42:05;;;;;;;9.52;6.47;;;11.10;91.00;;;;;;10246927;28;20173;-85
2022/04/23 06:47:06;;;;;;;12.45;6.57;;;11.30;90.80;;;;;;10249887;28;20474;-86
2022/04/23 06:52:07;;;;;;;12.45;7.40;;;11.40;90.60;;;;;;10246277;28;20125;-87
2022/04/23 06:57:08;;;;;;;12.35;6.97;;;11.50;90.40;;;;;;10259762;28;20049;-88
2022/04/23 07:02:09;;;;;;;12.98;7.07;;;11.60;90.20;;;;;;10241768;28;20038;-91
2022/04/23 07:07:10;;;;;;;14.10;7.38;;;11.70;90.10;;;;;;10261915;28;20038;-87
2022/04/23 07:12:11;;;;;;;13.57;7.55;;;11.70;89.80;;;;;;10258075;28;20030;-87
2022/04/23 07:17:12;;;;;;;14.18;7.03;;;11.80;89.60;;;;;;10277684;28;20051;-86
2022/04/23 07:22:12;;;;;;;11.73;7.25;;;11.80;89.40;;;;;;10259457;28;20043;-87
2022/04/23 07:27:13;;;;;;;11.80;7.50;;;11.90;89.50;;;;;;10245550;28;20046;-87
2022/04/23 07:32:15;;;;;;;13.13;7.68;;;12.10;89.10;;;;;;10258824;28;20039;-86
2022/04/23 07:37:31;;;;;;;12.55;7.70;;;12.30;88.90;;;;;;10253390;28;20038;-86
2022/04/23 07:42:32;;;;;;;12.55;7.70;;;12.30;88.30;;;;;;10244432;28;20109;-86
2022/04/23 07:47:33;;;;;;;15.73;8.18;;;12.40;87.90;;;;;;10258774;28;20049;-86
2022/04/23 07:52:35;;;;;;;13.27;7.55;;;12.60;87.70;;;;;;10271210;28;20512;-86
2022/04/23 07:57:35;;;;;;;16.27;8.43;;;12.70;87.10;;;;;;10259733;28;20038;-86
2022/04/23 08:02:36;;;;;;;15.07;8.57;;;12.80;86.80;;;;;;10276459;28;20038;-86
2022/04/23 08:07:39;;;;;;;16.77;8.35;;;13.00;86.90;;;;;;10255691;28;20046;-87
2022/04/23 08:12:40;;;;;;;14.82;9.10;;;13.10;86.10;;;;;;10255554;28;20059;-86
2022/04/23 08:17:41;;;;;;;14.50;8.50;;;13.20;85.00;;;;;;10256584;28;20509;-86
2022/04/23 08:22:42;;;;;;;16.70;8.57;;;13.30;84.60;;;;;;10238673;28;20024;-85
2022/04/23 08:27:50;;;;;;;17.08;8.50;;;13.40;84.30;;;;;;10255900;28;20054;-87
2022/04/23 08:32:50;;;;;;;14.63;8.33;;;13.60;83.70;;;;;;10279952;28;20035;-87
2022/04/23 08:37:51;;;;;;;14.02;7.70;;;13.70;83.70;;;;;;10255930;28;20047;-87
2022/04/23 08:42:52;;;;;;;17.40;8.20;;;13.80;82.60;;;;;;10259673;28;20049;-86
2022/04/23 08:47:54;;;;;;;16.98;8.90;;;14.00;81.90;;;;;;10248504;28;20137;-87
2022/04/23 08:52:58;;;;;;;16.27;9.40;;;14.10;81.40;;;;;;10281336;28;20501;-86
2022/04/23 09:00:59;;;;;;;14.55;8.02;;;14.40;78.50;;;;;;10597067;27;20531;-53
2022/04/23 09:06:00;;;;;;;14.75;8.25;;;14.30;79.20;;;;;;10563532;28;20193;-52
2022/04/23 09:11:01;;;;;;;14.90;8.35;;;14.20;79.20;;;;;;10571657;28;20023;-53
2022/04/23 09:27:03;;;;;;;16.95;9.10;;;14.30;78.40;;;;;;10549179;28;20034;-55
2022/04/23 09:32:19;;;;;;;15.13;8.60;;;14.30;77.40;;;;;;10535299;28;20013;-54
2022/04/23 09:38:11;;;;;;;15.65;8.93;;;14.30;77.60;;;;;;10533493;28;20624;-54
2022/04/23 09:43:03;;;;;;;13.73;8.80;;;13.50;76.80;;;;;;10546550;28;20097;-52
2022/04/23 09:48:04;;;;;;;15.68;8.82;;;14.40;77.30;;;;;;10526213;28;20024;-54
2022/04/23 09:53:12;;;;;;;23.85;10.20;;;14.00;76.20;;;;;;10526820;28;20016;-54
2022/04/23 09:58:14;;;;;;;15.27;9.32;;;14.40;75.70;;;;;;10532978;28;20047;-55
2022/04/23 10:03:15;;;;;;;15.20;9.05;;;14.50;76.30;;;;;;10523713;28;20020;-55
2022/04/23 10:08:18;;;;;;;16.48;9.43;;;14.80;76.20;;;;;;10528154;28;20024;-51
2022/04/23 10:13:21;;;;;;;16.25;9.82;;;14.90;75.70;;;;;;10505078;28;20478;-51
2022/04/23 10:18:22;;;;;;;14.20;8.43;;;15.00;75.50;;;;;;10513719;28;20901;-53
2022/04/23 10:23:32;;;;;;;17.35;10.18;;;15.10;75.20;;;;;;10513650;28;20240;-48
2022/04/23 10:28:33;;;;;;;15.80;9.20;;;15.30;74.70;;;;;;10520870;28;20040;-54
2022/04/23 10:33:34;;;;;;;18.25;9.93;;;15.40;74.90;;;;;;10525660;28;20035;-53
2022/04/23 10:38:40;;;;;;;15.85;9.32;;;15.40;74.20;;;;;;10530347;28;20048;-54
2022/04/23 10:43:52;;;;;;;19.08;10.90;;;15.30;73.50;;;;;;10530289;28;20497;-55
2022/04/23 10:49:17;;;;;;;17.95;11.40;;;15.20;72.70;;;;;;10530522;28;20070;-55
2022/04/23 10:54:21;;;;;;;20.38;10.57;;;15.40;73.10;;;;;;10526635;28;20033;-49
2022/04/23 10:59:42;;;;;;;25.48;11.82;;;15.40;73.10;;;;;;10531034;28;20063;-55
2022/04/23 11:16:16;;;;;;;23.33;11.57;;;15.50;75.10;;;;;;10528915;28;20372;-53
2022/04/23 11:21:23;;;;;;;15.85;10.07;;;15.60;74.60;;;;;;10531071;28;20622;-52
2022/04/23 11:26:39;;;;;;;14.52;8.93;;;15.80;73.10;;;;;;10523738;28;20047;-55
2022/04/23 11:31:49;;;;;;;15.93;9.90;;;15.90;72.70;;;;;;10529981;28;20028;-54
2022/04/23 11:36:49;;;;;;;21.00;9.88;;;16.00;72.70;;;;;;10528452;28;20143;-55
2022/04/23 11:41:51;;;;;;;17.42;10.65;;;16.10;72.00;;;;;;10528651;28;20475;-54
2022/04/23 11:46:52;;;;;;;17.65;9.80;;;16.30;71.40;;;;;;10528942;28;20584;-51
2022/04/23 11:52:10;;;;;;;15.55;9.50;;;16.40;71.30;;;;;;10523949;28;20142;-55
2022/04/23 11:57:12;;;;;;;36.10;13.02;;;16.50;69.80;;;;;;10520616;28;20036;-53
2022/04/23 12:02:21;;;;;;;42.40;15.88;;;16.60;70.30;;;;;;10525392;28;20431;-55
2022/04/23 12:07:23;;;;;;;19.08;10.35;;;16.70;70.70;;;;;;10530744;28;20424;-53
2022/04/23 12:12:26;;;;;;;15.27;9.43;;;16.80;70.90;;;;;;10517499;28;20058;-55
2022/04/23 12:17:31;;;;;;;15.60;9.32;;;17.00;70.10;;;;;;10519844;28;20024;-55
2022/04/23 12:22:32;;;;;;;16.95;9.43;;;17.00;69.20;;;;;;10526165;28;20035;-54
2022/04/23 12:44:21;;;;;;;49.40;17.10;;;17.20;67.60;;;;;;10525596;28;20490;-51
2022/04/23 12:49:22;;;;;;;51.50;20.00;;;17.40;68.40;;;;;;10527156;28;20120;-54
2022/04/23 12:54:23;;;;;;;30.38;12.55;;;17.50;68.60;;;;;;10526989;28;20509;-54
2022/04/23 12:59:24;;;;;;;12.05;8.30;;;17.50;68.20;;;;;;10515662;28;20099;-55
2022/04/23 13:04:25;;;;;;;9.40;6.50;;;17.50;67.10;;;;;;10513311;28;20116;-56
2022/04/23 13:09:25;;;;;;;12.77;5.88;;;17.40;67.20;;;;;;10539446;28;20028;-55
2022/04/23 13:14:26;;;;;;;11.30;5.70;;;17.40;68.20;;;;;;10526901;28;20508;-55
2022/04/23 13:19:27;;;;;;;10.68;5.63;;;17.50;69.10;;;;;;10521997;28;20051;-55
2022/04/23 13:24:27;;;;;;;12.25;5.80;;;17.50;69.70;;;;;;10529792;28;20066;-55
2022/04/23 13:29:28;;;;;;;18.30;8.05;;;17.60;70.30;;;;;;10528441;28;20478;-56
2022/04/23 13:34:29;;;;;;;27.15;9.30;;;17.60;71.00;;;;;;10524385;28;20430;-57
2022/04/23 13:39:30;;;;;;;26.42;10.15;;;17.60;71.60;;;;;;10526146;28;20576;-56
2022/04/23 13:44:30;;;;;;;16.80;8.30;;;17.70;72.20;;;;;;10524223;28;20038;-57
2022/04/23 13:49:31;;;;;;;18.00;7.75;;;17.70;71.70;;;;;;10527246;28;20093;-63
2022/04/23 13:54:32;;;;;;;16.13;7.35;;;17.70;72.30;;;;;;10533547;28;20028;-63
2022/04/23 13:59:34;;;;;;;13.10;6.40;;;17.80;72.50;;;;;;10534531;28;20101;-54
2022/04/23 14:10:07;;;;;;;13.25;5.88;;;18.00;72.20;;;;;;10540564;28;20028;-59
2022/04/23 14:15:08;;;;;;;10.57;5.50;;;18.10;72.00;;;;;;10497310;28;20040;-60
2022/04/23 14:20:09;;;;;;;7.75;4.90;;;18.20;71.70;;;;;;10500110;28;20032;-59
2022/04/23 14:25:09;;;;;;;9.00;4.55;;;18.30;71.70;;;;;;10513125;28;20025;-58
2022/04/23 14:30:11;;;;;;;6.63;4.60;;;18.30;71.10;;;;;;10536153;28;20130;-60
2022/04/23 14:35:12;;;;;;;6.60;4.57;;;18.40;70.80;;;;;;10534730;28;20038;-59
2022/04/23 14:40:13;;;;;;;7.13;4.47;;;18.50;70.60;;;;;;10532926;28;20382;-62
2022/04/23 14:45:18;;;;;;;6.68;4.18;;;18.60;70.60;;;;;;10532525;28;20034;-58
2022/04/23 14:50:18;;;;;;;5.18;3.97;;;18.70;70.30;;;;;;10532335;28;20043;-59
2022/04/23 14:55:19;;;;;;;12.60;4.32;;;18.80;70.00;;;;;;10533669;28;20115;-61
2022/04/23 15:00:20;;;;;;;11.95;5.53;;;18.80;70.00;;;;;;10531292;28;20044;-68
2022/04/23 15:05:22;;;;;;;12.98;6.35;;;18.90;70.20;;;;;;10531458;28;20035;-70
2022/04/23 15:10:23;;;;;;;16.17;6.63;;;19.00;70.20;;;;;;10539085;28;20031;-62
2022/04/23 15:15:24;;;;;;;13.88;6.32;;;19.10;70.20;;;;;;10533654;28;20402;-75
2022/04/23 15:20:28;;;;;;;16.40;5.65;;;19.20;70.20;;;;;;10534967;28;20032;-71
2022/04/23 15:25:29;;;;;;;14.52;6.45;;;19.30;70.10;;;;;;10531769;28;20016;-55
2022/04/23 15:30:30;;;;;;;14.10;7.25;;;19.30;70.10;;;;;;10525660;28;20263;-64
2022/04/23 15:35:31;;;;;;;11.00;5.30;;;19.30;70.40;;;;;;10529388;28;20020;-61
2022/04/23 15:40:32;;;;;;;9.35;5.25;;;19.30;69.70;;;;;;10537431;28;20449;-56
2022/04/23 15:45:32;;;;;;;7.20;4.80;;;19.30;68.80;;;;;;10527427;28;20028;-62
2022/04/23 15:50:34;;;;;;;6.78;4.30;;;19.30;66.10;;;;;;10499724;28;20024;-60
2022/04/23 15:55:34;;;;;;;9.63;4.22;;;19.10;64.30;;;;;;10518887;28;20036;-60
2022/04/23 16:00:36;;;;;;;6.72;4.40;;;18.70;60.80;;;;;;10527425;28;20056;-59
2022/04/23 16:05:37;;;;;;;11.27;3.83;;;18.20;59.80;;;;;;10527511;28;20491;-60
2022/04/23 16:10:41;;;;;;;5.78;3.67;;;17.80;59.10;;;;;;10530305;28;20068;-57
2022/04/23 16:15:42;;;;;;;6.97;4.13;;;17.60;58.20;;;;;;10511130;28;20024;-55
2022/04/23 16:20:43;;;;;;;7.30;4.00;;;17.40;59.40;;;;;;10529236;28;20024;-57
2022/04/23 16:25:45;;;;;;;5.18;3.60;;;17.30;59.50;;;;;;10527574;28;20028;-57
2022/04/23 16:30:46;;;;;;;5.88;3.85;;;17.20;59.00;;;;;;10526982;28;20020;-58
2022/04/23 16:46:39;;;;;;;6.22;3.70;;;17.00;58.40;;;;;;10527803;28;20365;-56
2022/04/23 16:51:40;;;;;;;6.43;3.97;;;16.90;58.20;;;;;;10522755;28;20101;-54
2022/04/23 16:56:42;;;;;;;6.25;4.25;;;16.80;58.90;;;;;;10494798;28;20059;-58
2022/04/23 17:01:42;;;;;;;4.60;3.53;;;16.80;58.70;;;;;;10496235;28;20040;-56
2022/04/23 17:06:44;;;;;;;6.97;4.00;;;16.70;58.40;;;;;;10513146;28;20386;-57
2022/04/23 17:11:45;;;;;;;7.82;4.10;;;16.70;57.20;;;;;;10497396;28;20078;-56
2022/04/23 17:16:48;;;;;;;10.65;3.83;;;16.70;57.30;;;;;;10494562;28;20035;-57
2022/04/23 17:21:49;;;;;;;7.88;4.10;;;16.70;57.10;;;;;;10532924;28;20490;-56
2022/04/23 17:26:52;;;;;;;9.55;4.13;;;16.60;57.50;;;;;;10536935;28;20047;-57
2022/04/23 17:31:52;;;;;;;4.38;3.15;;;16.50;58.20;;;;;;10534967;28;20093;-54
2022/04/23 17:36:53;;;;;;;6.90;3.30;;;16.40;58.50;;;;;;10532927;28;20047;-55
2022/04/23 17:41:55;;;;;;;5.53;3.15;;;16.40;59.50;;;;;;10533257;28;20028;-59
2022/04/23 17:46:56;;;;;;;4.43;2.75;;;16.50;60.10;;;;;;10532818;28;20039;-56
2022/04/23 17:51:57;;;;;;;6.90;3.08;;;16.90;61.20;;;;;;10532715;28;20256;-56
2022/04/23 17:56:57;;;;;;;7.03;2.95;;;17.10;62.30;;;;;;10525867;28;20040;-54
2022/04/23 18:12:21;;;;;;;4.97;2.92;;;17.30;64.60;;;;;;10508812;28;20027;-58
2022/04/23 18:17:22;;;;;;;6.47;2.83;;;17.30;64.90;;;;;;10527600;28;20035;-60
2022/04/23 18:22:23;;;;;;;3.85;2.60;;;17.30;65.40;;;;;;10514375;28;20024;-59
2022/04/23 18:27:24;;;;;;;4.03;3.10;;;17.30;65.50;;;;;;10508843;28;20025;-60
2022/04/23 18:32:25;;;;;;;5.13;2.97;;;17.30;66.00;;;;;;10517870;28;20486;-58
2022/04/23 18:37:26;;;;;;;4.15;2.70;;;17.30;66.10;;;;;;10512896;28;20646;-58
2022/04/23 18:42:27;;;;;;;3.45;2.50;;;17.20;66.40;;;;;;10508957;28;20035;-59
2022/04/23 18:47:28;;;;;;;5.57;2.65;;;17.20;66.50;;;;;;10525585;28;20412;-58
2022/04/23 18:52:29;;;;;;;4.72;2.58;;;17.20;66.50;;;;;;10523005;28;20027;-58
2022/04/23 18:57:30;;;;;;;3.70;2.90;;;17.20;66.50;;;;;;10529039;28;20081;-61
2022/04/23 19:02:30;;;;;;;6.18;2.92;;;17.00;66.40;;;;;;10509467;28;20048;-59
2022/04/23 19:07:31;;;;;;;5.05;2.80;;;17.00;66.50;;;;;;10502927;28;20032;-58
2022/04/23 19:12:32;;;;;;;4.47;3.05;;;16.90;66.50;;;;;;10513841;28;20021;-60
2022/04/23 19:17:33;;;;;;;5.35;2.83;;;16.90;66.50;;;;;;10498151;28;20040;-60
2022/04/23 19:28:02;;;;;;;6.80;3.30;;;16.90;66.70;;;;;;10507297;28;20078;-58
2022/04/23 19:33:03;;;;;;;3.63;2.80;;;16.90;66.80;;;;;;10494030;28;20016;-58
2022/04/23 19:38:04;;;;;;;5.03;2.75;;;16.90;66.80;;;;;;10499901;28;20032;-59
2022/04/23 19:43:05;;;;;;;3.88;3.20;;;16.80;66.90;;;;;;10491971;28;20406;-58
2022/04/23 19:48:06;;;;;;;5.20;2.90;;;16.80;67.00;;;;;;10496757;28;20024;-58
2022/04/23 19:53:06;;;;;;;5.50;3.40;;;16.80;67.00;;;;;;10510193;28;20024;-60
2022/04/23 19:58:08;;;;;;;5.15;3.33;;;16.80;67.10;;;;;;10521283;28;20040;-59
2022/04/23 20:03:09;;;;;;;4.30;3.15;;;16.80;67.40;;;;;;10517310;28;20078;-58
2022/04/23 20:08:10;;;;;;;5.20;2.90;;;16.70;67.30;;;;;;10523525;28;20039;-59
2022/04/23 20:13:11;;;;;;;5.68;3.03;;;16.70;67.60;;;;;;10509400;28;20024;-57
2022/04/23 20:18:12;;;;;;;5.20;3.38;;;16.70;68.00;;;;;;10527621;28;20028;-58
2022/04/23 20:23:13;;;;;;;4.57;2.97;;;16.70;68.00;;;;;;10515540;28;20568;-58
2022/04/23 20:28:14;;;;;;;5.40;3.45;;;16.60;68.20;;;;;;10523390;28;20032;-58
2022/04/23 20:33:14;;;;;;;5.72;3.03;;;16.60;68.10;;;;;;10517621;28;20093;-57
2022/04/23 20:38:20;;;;;;;4.93;3.40;;;16.60;68.60;;;;;;10527956;28;20035;-56
2022/04/23 20:43:21;;;;;;;6.65;3.50;;;16.60;68.80;;;;;;10519169;28;20100;-59
2022/04/23 20:48:22;;;;;;;7.72;3.55;;;16.60;69.00;;;;;;10526852;28;20035;-59
2022/04/23 20:53:24;;;;;;;5.45;3.08;;;16.50;69.50;;;;;;10505362;28;20106;-57
2022/04/23 20:58:25;;;;;;;6.20;3.38;;;16.50;69.10;;;;;;10494960;28;20036;-59
2022/04/23 21:03:25;;;;;;;4.75;3.25;;;16.50;69.10;;;;;;10493201;28;20052;-58
2022/04/23 21:08:26;;;;;;;7.35;3.58;;;16.40;69.00;;;;;;10494133;28;20535;-57
2022/04/23 21:13:27;;;;;;;6.13;3.63;;;16.40;69.00;;;;;;10497311;28;20033;-59
2022/04/23 21:18:29;;;;;;;8.48;3.67;;;16.40;69.00;;;;;;10497133;28;20032;-59
2022/04/23 21:23:30;;;;;;;8.13;3.70;;;16.30;69.00;;;;;;10501164;28;20021;-58
2022/04/23 21:28:30;;;;;;;5.47;3.55;;;16.30;69.00;;;;;;10498529;28;20039;-59
2022/04/23 21:33:32;;;;;;;7.10;3.33;;;16.00;68.90;;;;;;10493939;28;20030;-60
2022/04/23 21:38:33;;;;;;;6.03;4.13;;;16.40;69.50;;;;;;10501619;28;20473;-59
2022/04/23 21:48:52;;;;;;;5.60;3.80;;;16.30;69.70;;;;;;10493333;28;20059;-60
2022/04/23 21:53:53;;;;;;;5.88;3.85;;;16.20;69.50;;;;;;10518904;28;20397;-59
2022/04/23 21:58:54;;;;;;;7.03;3.90;;;16.20;69.70;;;;;;10526292;28;20040;-60
2022/04/23 22:03:54;;;;;;;7.07;4.90;;;16.10;69.50;;;;;;10526742;28;20127;-60
2022/04/23 22:08:55;;;;;;;7.90;4.70;;;16.10;69.70;;;;;;10530805;28;20592;-59
2022/04/23 22:13:56;;;;;;;6.00;4.45;;;16.00;69.60;;;;;;10534234;28;20043;-60
2022/04/23 22:18:57;;;;;;;7.57;4.05;;;16.00;69.70;;;;;;10533600;28;20040;-59
2022/04/23 22:23:57;;;;;;;7.35;4.95;;;16.00;69.70;;;;;;10529302;28;20068;-59
2022/04/23 22:28:58;;;;;;;6.63;4.53;;;15.90;69.70;;;;;;10532109;28;20012;-59
2022/04/23 22:33:59;;;;;;;7.20;4.68;;;15.90;69.70;;;;;;10533458;28;20386;-58
2022/04/23 22:38:59;;;;;;;6.85;4.60;;;15.90;69.70;;;;;;10533401;28;20043;-59
2022/04/23 22:44:00;;;;;;;6.03;4.60;;;15.80;69.70;;;;;;10532937;28;20171;-59
2022/04/23 22:49:01;;;;;;;7.05;5.20;;;15.80;70.40;;;;;;10532390;28;20123;-59
2022/04/23 22:54:02;;;;;;;6.78;5.05;;;15.80;69.80;;;;;;10530799;28;20107;-59
2022/04/23 22:59:03;;;;;;;7.00;5.18;;;15.70;69.70;;;;;;10531840;28;20657;-58
2022/04/23 23:04:04;;;;;;;6.50;4.97;;;15.70;69.80;;;;;;10531621;28;20044;-59
2022/04/23 23:09:04;;;;;;;8.18;5.25;;;15.70;69.70;;;;;;10528931;28;20471;-59
2022/04/23 23:14:05;;;;;;;6.15;4.57;;;15.70;69.80;;;;;;10531060;28;20035;-58
2022/04/23 23:19:06;;;;;;;6.65;4.60;;;15.60;69.80;;;;;;10531477;28;20066;-60
2022/04/23 23:24:07;;;;;;;8.25;5.28;;;15.60;69.90;;;;;;10524918;28;20093;-59
2022/04/23 23:29:07;;;;;;;7.68;4.82;;;15.50;69.90;;;;;;10530512;28;20051;-58
2022/04/23 23:34:08;;;;;;;6.68;4.95;;;15.50;69.90;;;;;;10530155;28;20027;-59
2022/04/23 23:39:09;;;;;;;8.65;5.10;;;15.50;70.10;;;;;;10534208;28;20067;-59
2022/04/23 23:44:10;;;;;;;7.45;5.43;;;15.50;70.00;;;;;;10520011;28;20109;-60
2022/04/23 23:49:12;;;;;;;6.60;4.82;;;15.40;70.00;;;;;;10529486;28;20110;-59
2022/04/23 23:54:12;;;;;;;6.50;4.88;;;15.40;70.10;;;;;;10529441;28;20485;-59
2022/04/23 23:59:13;;;;;;;6.65;4.70;;;15.40;70.20;;;;;;10529307;28;20123;-59
